createdAt,value
2018-12-09T00:02:27.732Z,96795.00
2018-12-09T00:04:55.985Z,96772.00
2018-12-09T00:07:24.261Z,96762.00
2018-12-09T00:09:52.546Z,96749.00
2018-12-09T00:12:20.826Z,96741.00
2018-12-09T00:14:49.198Z,96726.00
2018-12-09T00:17:17.582Z,96723.00
2018-12-09T00:19:45.853Z,96712.00
2018-12-09T00:22:14.124Z,96704.00
2018-12-09T00:24:42.388Z,96714.00
2018-12-09T00:27:10.666Z,96707.00
2018-12-09T00:29:38.936Z,96712.00
2018-12-09T00:32:07.202Z,96701.00
2018-12-09T00:34:35.462Z,96704.00
2018-12-09T00:37:03.735Z,96701.00
2018-12-09T00:39:31.993Z,96695.00
2018-12-09T00:42:00.392Z,96684.00
2018-12-09T00:44:28.718Z,96696.00
2018-12-09T00:46:57.008Z,96677.00
2018-12-09T00:49:25.343Z,96667.00
2018-12-09T00:51:53.647Z,96666.00
2018-12-09T00:54:21.980Z,96648.00
2018-12-09T00:56:50.251Z,96647.00
2018-12-09T00:59:18.611Z,96648.00
2018-12-09T01:01:46.898Z,96651.00
2018-12-09T01:04:15.334Z,96650.00
2018-12-09T01:06:43.624Z,96646.00
2018-12-09T01:09:11.914Z,96643.00
2018-12-09T01:11:40.169Z,96658.00
2018-12-09T01:14:08.460Z,96657.00
2018-12-09T01:16:36.722Z,96649.00
2018-12-09T01:19:05.019Z,96659.00
2018-12-09T01:21:33.318Z,96659.00
2018-12-09T01:24:01.606Z,96661.00
2018-12-09T01:26:30.102Z,96673.00
2018-12-09T01:28:58.466Z,96669.00
2018-12-09T01:31:26.720Z,96714.00
2018-12-09T01:33:55.466Z,96708.00
2018-12-09T01:36:23.897Z,96715.00
2018-12-09T01:38:52.185Z,96714.00
2018-12-09T01:41:20.537Z,96697.00
2018-12-09T01:43:48.889Z,96715.00
2018-12-09T01:46:17.157Z,96657.00
2018-12-09T01:48:45.770Z,96678.00
2018-12-09T01:51:14.149Z,96671.00
2018-12-09T01:54:14.580Z,96676.00
2018-12-09T01:56:42.868Z,96644.00
2018-12-09T01:59:11.237Z,96646.00
2018-12-09T02:01:39.804Z,96660.00
2018-12-09T02:04:08.248Z,96654.00
2018-12-09T02:06:36.617Z,96659.00
2018-12-09T02:09:07.173Z,96663.00
2018-12-09T02:11:35.542Z,96661.00
2018-12-09T02:14:03.823Z,96668.00
2018-12-09T02:16:32.562Z,96652.00
2018-12-09T02:19:25.602Z,96654.00
2018-12-09T02:21:54.006Z,96646.00
2018-12-09T02:24:22.603Z,96630.00
2018-12-09T02:26:50.992Z,96641.00
2018-12-09T02:29:19.378Z,96619.00
2018-12-09T02:31:47.680Z,96624.00
2018-12-09T02:34:16.066Z,96628.00
2018-12-09T02:36:44.342Z,96621.00
2018-12-09T02:39:13.206Z,96628.00
2018-12-09T02:41:41.583Z,96615.00
2018-12-09T02:44:09.863Z,96608.00
2018-12-09T02:46:38.539Z,96598.00
2018-12-09T02:49:07.502Z,96594.00
2018-12-09T02:51:36.767Z,96592.00
2018-12-09T02:54:05.983Z,96606.00
2018-12-09T02:56:35.243Z,96591.00
2018-12-09T02:59:04.436Z,96577.00
2018-12-09T03:01:33.505Z,96582.00
2018-12-09T03:04:02.667Z,96591.00
2018-12-09T03:06:32.105Z,96582.00
2018-12-09T03:09:01.156Z,96587.00
2018-12-09T03:11:29.750Z,96593.00
2018-12-09T03:13:58.436Z,96597.00
2018-12-09T03:16:26.929Z,96588.00
2018-12-09T03:18:55.891Z,96588.00
2018-12-09T03:21:24.507Z,96599.00
2018-12-09T03:23:53.021Z,96587.00
2018-12-09T03:26:21.659Z,96617.00
2018-12-09T03:28:50.239Z,96595.00
2018-12-09T03:31:18.704Z,96598.00
2018-12-09T03:33:47.211Z,96585.00
2018-12-09T03:36:15.716Z,96584.00
2018-12-09T03:38:44.286Z,96576.00
2018-12-09T03:41:13.268Z,96580.00
2018-12-09T03:43:41.871Z,96568.00
2018-12-09T03:46:10.444Z,96586.00
2018-12-09T03:48:39.034Z,96592.00
2018-12-09T03:51:07.594Z,96582.00
2018-12-09T03:53:36.108Z,96596.00
2018-12-09T03:56:04.691Z,96601.00
2018-12-09T03:58:33.160Z,96603.00
2018-12-09T04:01:01.641Z,96609.00
2018-12-09T04:03:30.146Z,96619.00
2018-12-09T04:05:58.706Z,96619.00
2018-12-09T04:08:27.195Z,96630.00
2018-12-09T04:10:55.702Z,96628.00
2018-12-09T04:13:24.220Z,96637.00
2018-12-09T04:15:52.708Z,96632.00
2018-12-09T04:18:21.204Z,96630.00
2018-12-09T04:20:49.675Z,96616.00
2018-12-09T04:23:20.046Z,96622.00
2018-12-09T04:25:48.733Z,96635.00
2018-12-09T04:28:17.297Z,96632.00
2018-12-09T04:30:45.885Z,96638.00
2018-12-09T04:33:14.362Z,96637.00
2018-12-09T04:35:42.950Z,96635.00
2018-12-09T04:38:11.534Z,96629.00
2018-12-09T04:40:40.121Z,96634.00
2018-12-09T04:43:08.610Z,96637.00
2018-12-09T04:45:37.079Z,96658.00
2018-12-09T04:48:05.572Z,96655.00
2018-12-09T04:50:34.459Z,96655.00
2018-12-09T04:53:02.949Z,96664.00
2018-12-09T04:55:31.440Z,96656.00
2018-12-09T04:57:59.944Z,96664.00
2018-12-09T05:00:39.626Z,96656.00
2018-12-09T05:03:08.137Z,96661.00
2018-12-09T05:05:36.596Z,96667.00
2018-12-09T05:08:05.099Z,96674.00
2018-12-09T05:10:33.683Z,96676.00
2018-12-09T05:13:02.180Z,96691.00
2018-12-09T05:15:30.752Z,96687.00
2018-12-09T05:17:59.240Z,96686.00
2018-12-09T05:20:27.732Z,96685.00
2018-12-09T05:22:56.224Z,96689.00
2018-12-09T05:25:24.719Z,96697.00
2018-12-09T05:27:53.258Z,96698.00
2018-12-09T05:30:22.296Z,96700.00
2018-12-09T05:32:50.799Z,96691.00
2018-12-09T05:35:19.811Z,96701.00
2018-12-09T05:37:48.320Z,96700.00
2018-12-09T05:40:16.840Z,96691.00
2018-12-09T05:42:45.388Z,96684.00
2018-12-09T05:45:13.959Z,96697.00
2018-12-09T05:47:42.792Z,96711.00
2018-12-09T05:50:11.349Z,96716.00
2018-12-09T05:52:39.952Z,96728.00
2018-12-09T05:55:08.580Z,96723.00
2018-12-09T05:57:37.513Z,96726.00
2018-12-09T06:00:06.614Z,96724.00
2018-12-09T06:02:46.522Z,96706.00
2018-12-09T06:05:15.191Z,96735.00
2018-12-09T06:07:43.736Z,96736.00
2018-12-09T06:10:12.275Z,96733.00
2018-12-09T06:12:40.903Z,96752.00
2018-12-09T06:15:09.956Z,96748.00
2018-12-09T06:17:38.596Z,96755.00
2018-12-09T06:20:07.166Z,96753.00
2018-12-09T06:22:35.849Z,96760.00
2018-12-09T06:25:04.405Z,96755.00
2018-12-09T06:27:33.002Z,96751.00
2018-12-09T06:30:01.706Z,96750.00
2018-12-09T06:32:30.713Z,96748.00
2018-12-09T06:34:59.289Z,96742.00
2018-12-09T06:37:28.005Z,96757.00
2018-12-09T06:39:56.562Z,96753.00
2018-12-09T06:42:25.141Z,96752.00
2018-12-09T06:44:53.638Z,96757.00
2018-12-09T06:47:27.673Z,96757.00
2018-12-09T06:50:09.013Z,96748.00
2018-12-09T06:52:43.002Z,96751.00
2018-12-09T06:55:11.497Z,96761.00
2018-12-09T06:57:40.104Z,96752.00
2018-12-09T07:00:09.288Z,96753.00
2018-12-09T07:02:37.833Z,96752.00
2018-12-09T07:05:07.599Z,96749.00
2018-12-09T07:07:36.176Z,96751.00
2018-12-09T07:10:06.794Z,96754.00
2018-12-09T07:12:35.347Z,96751.00
2018-12-09T07:15:03.855Z,96749.00
2018-12-09T07:17:32.456Z,96753.00
2018-12-09T07:20:01.036Z,96757.00
2018-12-09T07:22:29.532Z,96758.00
2018-12-09T07:24:58.345Z,96767.00
2018-12-09T07:27:27.052Z,96787.00
2018-12-09T07:30:02.057Z,96798.00
2018-12-09T07:32:26.637Z,96780.00
2018-12-09T07:34:55.216Z,96799.00
2018-12-09T07:37:23.921Z,96793.00
2018-12-09T07:39:52.647Z,96789.00
2018-12-09T07:42:21.181Z,96803.00
2018-12-09T07:44:50.082Z,96816.00
2018-12-09T07:47:18.652Z,96818.00
2018-12-09T07:49:47.249Z,96831.00
2018-12-09T07:52:15.935Z,96819.00
2018-12-09T07:54:44.533Z,96828.00
2018-12-09T07:57:13.184Z,96825.00
2018-12-09T07:59:41.685Z,96832.00
2018-12-09T08:02:10.357Z,96827.00
2018-12-09T08:04:38.950Z,96824.00
2018-12-09T08:07:07.426Z,96845.00
2018-12-09T08:09:35.955Z,96842.00
2018-12-09T08:12:04.518Z,96839.00
2018-12-09T08:14:33.087Z,96853.00
2018-12-09T08:17:01.580Z,96856.00
2018-12-09T08:19:30.055Z,96862.00
2018-12-09T08:21:58.626Z,96849.00
2018-12-09T08:24:27.336Z,96855.00
2018-12-09T08:26:55.898Z,96860.00
2018-12-09T08:29:24.489Z,96860.00
2018-12-09T08:31:52.977Z,96876.00
2018-12-09T08:34:21.468Z,96867.00
2018-12-09T08:36:49.946Z,96877.00
2018-12-09T08:39:18.418Z,96872.00
2018-12-09T08:41:47.103Z,96882.00
2018-12-09T08:44:15.617Z,96878.00
2018-12-09T08:46:44.351Z,96885.00
2018-12-09T08:49:12.870Z,96889.00
2018-12-09T08:51:41.431Z,96886.00
2018-12-09T08:54:09.935Z,96882.00
2018-12-09T08:56:38.637Z,96887.00
2018-12-09T08:59:07.201Z,96887.00
2018-12-09T09:01:35.794Z,96895.00
2018-12-09T09:04:04.911Z,96892.00
2018-12-09T09:06:34.191Z,96914.00
2018-12-09T09:09:03.431Z,96923.00
2018-12-09T09:11:31.935Z,96915.00
2018-12-09T09:14:00.221Z,96926.00
2018-12-09T09:16:28.509Z,96932.00
2018-12-09T09:18:56.938Z,96936.00
2018-12-09T09:21:25.225Z,96920.00
2018-12-09T09:23:53.604Z,96944.00
2018-12-09T09:26:21.902Z,96925.00
2018-12-09T09:28:50.222Z,96921.00
2018-12-09T09:31:18.464Z,96946.00
2018-12-09T09:33:46.739Z,96955.00
2018-12-09T09:36:14.994Z,96958.00
2018-12-09T09:38:43.377Z,96939.00
2018-12-09T09:41:11.654Z,96947.00
2018-12-09T09:43:39.950Z,96954.00
2018-12-09T09:46:08.296Z,96957.00
2018-12-09T09:48:36.573Z,96956.00
2018-12-09T09:51:04.977Z,96947.00
2018-12-09T09:53:33.283Z,96955.00
2018-12-09T09:56:01.601Z,96954.00
2018-12-09T09:58:29.877Z,96955.00
2018-12-09T10:00:58.162Z,96955.00
2018-12-09T10:03:26.438Z,96953.00
2018-12-09T10:05:54.696Z,96943.00
2018-12-09T10:08:22.946Z,96935.00
2018-12-09T10:13:25.804Z,96945.00
2018-12-09T10:15:54.076Z,96936.00
2018-12-09T10:18:22.334Z,96942.00
2018-12-09T10:20:50.589Z,96943.00
2018-12-09T10:23:18.850Z,96952.00
2018-12-09T10:25:47.154Z,96948.00
2018-12-09T10:28:15.433Z,96943.00
2018-12-09T10:30:43.761Z,96941.00
2018-12-09T10:33:12.243Z,96936.00
2018-12-09T10:35:40.485Z,96926.00
2018-12-09T10:38:08.753Z,96940.00
2018-12-09T10:40:37.042Z,96946.00
2018-12-09T10:43:05.389Z,96951.00
2018-12-09T10:45:33.705Z,96945.00
2018-12-09T10:48:02.068Z,96959.00
2018-12-09T10:50:30.380Z,96950.00
2018-12-09T10:52:58.655Z,96959.00
2018-12-09T10:55:27.013Z,96957.00
2018-12-09T10:57:55.297Z,96956.00
2018-12-09T11:01:32.321Z,96959.00
2018-12-09T11:04:00.973Z,96957.00
2018-12-09T11:06:29.379Z,96951.00
2018-12-09T11:08:57.647Z,96961.00
2018-12-09T11:11:25.908Z,96960.00
2018-12-09T11:13:58.125Z,96969.00
2018-12-09T11:17:27.426Z,96964.00
2018-12-09T11:19:55.759Z,96959.00
2018-12-09T11:22:24.013Z,96966.00
2018-12-09T11:24:52.279Z,96966.00
2018-12-09T11:27:20.584Z,96974.00
2018-12-09T11:29:48.845Z,96964.00
2018-12-09T11:32:17.123Z,96967.00
2018-12-09T11:34:45.392Z,96983.00
2018-12-09T11:37:13.717Z,96970.00
2018-12-09T11:39:41.990Z,96967.00
2018-12-09T11:42:10.321Z,96970.00
2018-12-09T11:44:38.880Z,96966.00
2018-12-09T11:47:07.161Z,96966.00
2018-12-09T11:49:35.461Z,96964.00
2018-12-09T11:52:03.769Z,96962.00
2018-12-09T11:54:32.022Z,96975.00
2018-12-09T11:57:00.313Z,96969.00
2018-12-09T11:59:28.631Z,96969.00
2018-12-09T12:01:57.002Z,96982.00
2018-12-09T12:04:25.256Z,96992.00
2018-12-09T12:06:53.533Z,96990.00
2018-12-09T12:09:21.813Z,96991.00
2018-12-09T12:11:50.089Z,96989.00
2018-12-09T12:14:18.361Z,96997.00
2018-12-09T12:16:46.642Z,96985.00
2018-12-09T12:19:14.903Z,96982.00
2018-12-09T12:21:43.165Z,97001.00
2018-12-09T12:24:11.526Z,96990.00
2018-12-09T12:26:39.978Z,96990.00
2018-12-09T12:29:08.425Z,96987.00
2018-12-09T12:31:36.949Z,96981.00
2018-12-09T12:34:05.378Z,96980.00
2018-12-09T12:36:33.901Z,96984.00
2018-12-09T12:39:02.266Z,96969.00
2018-12-09T12:41:31.905Z,96976.00
2018-12-09T12:44:00.356Z,96969.00
2018-12-09T12:46:28.765Z,96975.00
2018-12-09T12:48:57.131Z,96975.00
2018-12-09T12:51:25.521Z,96964.00
2018-12-09T12:53:53.926Z,96971.00
2018-12-09T12:56:22.277Z,96968.00
2018-12-09T12:58:50.636Z,96962.00
2018-12-09T13:01:19.663Z,96957.00
2018-12-09T13:03:47.974Z,96972.00
2018-12-09T13:06:16.667Z,96957.00
2018-12-09T13:08:44.984Z,96966.00
2018-12-09T13:11:13.341Z,96965.00
2018-12-09T13:13:41.718Z,96954.00
2018-12-09T13:16:10.197Z,96967.00
2018-12-09T13:18:38.594Z,96970.00
2018-12-09T13:21:06.886Z,96965.00
2018-12-09T13:23:35.341Z,96962.00
2018-12-09T13:26:03.746Z,96954.00
2018-12-09T13:28:32.123Z,96963.00
2018-12-09T13:31:00.386Z,96963.00
2018-12-09T13:33:28.670Z,96969.00
2018-12-09T13:35:57.046Z,96962.00
2018-12-09T13:38:25.320Z,96975.00
2018-12-09T13:40:53.606Z,96970.00
2018-12-09T13:43:21.889Z,96984.00
2018-12-09T13:45:50.175Z,96987.00
2018-12-09T13:48:18.628Z,96978.00
2018-12-09T13:50:46.965Z,96983.00
2018-12-09T13:53:15.274Z,96990.00
2018-12-09T13:55:43.572Z,96997.00
2018-12-09T13:58:11.932Z,96990.00
2018-12-09T14:00:40.229Z,96993.00
2018-12-09T14:03:08.464Z,96998.00
2018-12-09T14:05:36.761Z,96989.00
2018-12-09T14:08:05.077Z,97011.00
2018-12-09T14:10:33.508Z,97002.00
2018-12-09T14:13:01.793Z,97016.00
2018-12-09T14:15:30.167Z,97016.00
2018-12-09T14:17:58.421Z,97016.00
2018-12-09T14:20:26.693Z,97019.00
2018-12-09T14:22:55.059Z,97022.00
2018-12-09T14:25:23.330Z,97023.00
2018-12-09T14:27:51.680Z,97039.00
2018-12-09T14:30:20.030Z,97040.00
2018-12-09T14:32:48.348Z,97052.00
2018-12-09T14:35:16.686Z,97052.00
2018-12-09T14:37:45.124Z,97064.00
2018-12-09T14:40:14.878Z,97059.00
2018-12-09T14:42:43.308Z,97063.00
2018-12-09T14:45:11.662Z,97056.00
2018-12-09T14:47:40.046Z,97049.00
2018-12-09T14:50:08.841Z,97042.00
2018-12-09T14:52:37.210Z,97052.00
2018-12-09T14:55:05.838Z,97067.00
2018-12-09T14:57:34.203Z,97079.00
2018-12-09T15:00:02.561Z,97080.00
2018-12-09T15:02:30.931Z,97083.00
2018-12-09T15:04:59.227Z,97082.00
2018-12-09T15:07:27.613Z,97090.00
2018-12-09T15:09:56.266Z,97073.00
2018-12-09T15:12:24.721Z,97080.00
2018-12-09T15:14:52.995Z,97102.00
2018-12-09T15:17:21.361Z,97110.00
2018-12-09T15:19:49.710Z,97109.00
2018-12-09T15:22:18.094Z,97119.00
2018-12-09T15:24:46.378Z,97120.00
2018-12-09T15:27:14.655Z,97124.00
2018-12-09T15:29:43.034Z,97142.00
2018-12-09T15:32:11.434Z,97151.00
2018-12-09T15:34:39.761Z,97132.00
2018-12-09T15:37:08.839Z,97150.00
2018-12-09T15:39:37.261Z,97159.00
2018-12-09T15:42:05.649Z,97170.00
2018-12-09T15:44:33.986Z,97181.00
2018-12-09T15:47:02.278Z,97181.00
2018-12-09T15:49:30.556Z,97189.00
2018-12-09T15:51:58.877Z,97194.00
2018-12-09T15:54:27.331Z,97178.00
2018-12-09T15:56:55.708Z,97167.00
2018-12-09T15:59:31.906Z,97178.00
2018-12-09T16:01:54.246Z,97193.00
2018-12-09T16:04:22.600Z,97190.00
2018-12-09T16:09:25.639Z,97187.00
2018-12-09T16:11:54.002Z,97193.00
2018-12-09T16:14:22.274Z,97205.00
2018-12-09T16:16:50.556Z,97213.00
2018-12-09T16:19:18.838Z,97216.00
2018-12-09T16:21:47.124Z,97220.00
2018-12-09T16:24:15.452Z,97226.00
2018-12-09T16:26:43.889Z,97227.00
2018-12-09T16:29:12.151Z,97234.00
2018-12-09T16:31:40.409Z,97240.00
2018-12-09T16:34:08.689Z,97248.00
2018-12-09T16:36:36.934Z,97249.00
2018-12-09T16:39:06.889Z,97267.00
2018-12-09T16:41:35.245Z,97262.00
2018-12-09T16:44:03.922Z,97272.00
2018-12-09T16:46:32.362Z,97266.00
2018-12-09T16:49:00.665Z,97275.00
2018-12-09T16:51:29.051Z,97277.00
2018-12-09T16:53:57.415Z,97291.00
2018-12-09T16:56:25.723Z,97299.00
2018-12-09T16:58:54.114Z,97311.00
2018-12-09T17:01:22.510Z,97305.00
2018-12-09T17:03:50.998Z,97318.00
2018-12-09T17:07:22.661Z,97323.00
2018-12-09T17:09:50.929Z,97336.00
2018-12-09T17:12:19.262Z,97346.00
2018-12-09T17:14:47.557Z,97346.00
2018-12-09T17:17:15.943Z,97357.00
2018-12-09T17:19:44.215Z,97367.00
2018-12-09T17:22:12.503Z,97374.00
2018-12-09T17:24:40.783Z,97375.00
2018-12-09T17:27:09.100Z,97387.00
2018-12-09T17:29:37.375Z,97389.00
2018-12-09T17:32:05.665Z,97396.00
2018-12-09T17:34:34.004Z,97407.00
2018-12-09T17:37:02.318Z,97419.00
2018-12-09T17:39:30.573Z,97426.00
2018-12-09T17:41:58.826Z,97430.00
2018-12-09T17:44:27.100Z,97430.00
2018-12-09T17:46:55.382Z,97443.00
2018-12-09T17:49:23.666Z,97438.00
2018-12-09T17:51:51.963Z,97449.00
2018-12-09T17:54:20.337Z,97463.00
2018-12-09T17:56:48.633Z,97460.00
2018-12-09T17:59:16.953Z,97466.00
2018-12-09T18:01:45.246Z,97472.00
2018-12-09T18:04:13.514Z,97479.00
2018-12-09T18:06:41.784Z,97489.00
2018-12-09T18:09:10.143Z,97491.00
2018-12-09T18:11:38.495Z,97490.00
2018-12-09T18:14:06.773Z,97483.00
2018-12-09T18:16:35.412Z,97489.00
2018-12-09T18:19:03.997Z,97492.00
2018-12-09T18:21:32.374Z,97498.00
2018-12-09T18:24:00.754Z,97501.00
2018-12-09T18:26:29.028Z,97494.00
2018-12-09T18:28:57.313Z,97499.00
2018-12-09T18:31:25.603Z,97512.00
2018-12-09T18:33:53.949Z,97526.00
2018-12-09T18:36:22.268Z,97538.00
2018-12-09T18:38:50.546Z,97535.00
2018-12-09T18:41:18.844Z,97533.00
2018-12-09T18:43:47.160Z,97540.00
2018-12-09T18:46:15.452Z,97551.00
2018-12-09T18:48:43.737Z,97530.00
2018-12-09T18:51:12.004Z,97563.00
2018-12-09T18:53:40.354Z,97565.00
2018-12-09T18:56:08.639Z,97573.00
2018-12-09T18:58:36.909Z,97571.00
2018-12-09T19:01:05.165Z,97585.00
2018-12-09T19:03:33.478Z,97587.00
2018-12-09T19:06:01.733Z,97598.00
2018-12-09T19:08:30.118Z,97583.00
2018-12-09T19:11:11.208Z,97596.00
2018-12-09T19:13:39.756Z,97605.00
2018-12-09T19:16:08.288Z,97600.00
2018-12-09T19:18:36.769Z,97609.00
2018-12-09T19:21:05.241Z,97618.00
2018-12-09T19:23:33.718Z,97622.00
2018-12-09T19:26:02.190Z,97626.00
2018-12-09T19:28:30.751Z,97620.00
2018-12-09T19:30:59.290Z,97628.00
2018-12-09T19:33:27.776Z,97627.00
2018-12-09T19:35:56.251Z,97631.00
2018-12-09T19:38:24.749Z,97642.00
2018-12-09T19:40:53.216Z,97643.00
2018-12-09T19:43:22.153Z,97645.00
2018-12-09T19:45:51.236Z,97657.00
2018-12-09T19:48:20.357Z,97659.00
2018-12-09T19:50:49.532Z,97660.00
2018-12-09T19:53:18.606Z,97665.00
2018-12-09T19:55:48.020Z,97672.00
2018-12-09T19:58:17.147Z,97662.00
2018-12-09T20:00:46.492Z,97674.00
2018-12-09T20:03:15.573Z,97686.00
2018-12-09T20:05:44.598Z,97690.00
2018-12-09T20:08:13.473Z,97694.00
2018-12-09T20:10:42.538Z,97710.00
2018-12-09T20:13:11.065Z,97701.00
2018-12-09T20:15:39.545Z,97717.00
2018-12-09T20:18:08.037Z,97712.00
2018-12-09T20:20:36.520Z,97719.00
2018-12-09T20:23:04.995Z,97711.00
2018-12-09T20:25:33.478Z,97716.00
2018-12-09T20:28:01.940Z,97713.00
2018-12-09T20:30:30.431Z,97711.00
2018-12-09T20:32:58.917Z,97721.00
2018-12-09T20:35:27.406Z,97731.00
2018-12-09T20:37:55.889Z,97730.00
2018-12-09T20:40:24.364Z,97742.00
2018-12-09T20:42:52.849Z,97747.00
2018-12-09T20:45:21.346Z,97756.00
2018-12-09T20:47:50.042Z,97760.00
2018-12-09T20:50:18.595Z,97754.00
2018-12-09T20:52:47.191Z,97761.00
2018-12-09T20:55:15.696Z,97774.00
2018-12-09T20:57:44.470Z,97769.00
2018-12-09T21:00:13.045Z,97771.00
2018-12-09T21:02:41.611Z,97765.00
2018-12-09T21:05:10.092Z,97773.00
2018-12-09T21:07:38.604Z,97780.00
2018-12-09T21:10:09.536Z,97778.00
2018-12-09T21:12:38.022Z,97783.00
2018-12-09T21:15:07.116Z,97790.00
2018-12-09T21:17:35.797Z,97781.00
2018-12-09T21:20:04.503Z,97788.00
2018-12-09T21:22:33.078Z,97797.00
2018-12-09T21:25:01.664Z,97798.00
2018-12-09T21:27:30.156Z,97802.00
2018-12-09T21:29:58.636Z,97816.00
2018-12-09T21:32:27.297Z,97827.00
2018-12-09T21:34:55.789Z,97819.00
2018-12-09T21:37:24.256Z,97823.00
2018-12-09T21:39:52.736Z,97826.00
2018-12-09T21:42:21.229Z,97812.00
2018-12-09T21:44:50.033Z,97829.00
2018-12-09T21:47:18.522Z,97822.00
2018-12-09T21:49:47.306Z,97826.00
2018-12-09T21:52:15.803Z,97835.00
2018-12-09T21:54:44.297Z,97828.00
2018-12-09T21:57:12.769Z,97839.00
2018-12-09T21:59:41.242Z,97840.00
2018-12-09T22:02:09.712Z,97849.00
2018-12-09T22:04:38.193Z,97842.00
2018-12-09T22:07:07.089Z,97852.00
2018-12-09T22:09:35.569Z,97860.00
2018-12-09T22:12:04.130Z,97869.00
2018-12-09T22:14:32.614Z,97861.00
2018-12-09T22:17:01.094Z,97870.00
2018-12-09T22:19:29.582Z,97879.00
2018-12-09T22:21:58.070Z,97892.00
2018-12-09T22:24:26.543Z,97884.00
2018-12-09T22:26:55.020Z,97905.00
2018-12-09T22:29:23.502Z,97900.00
2018-12-09T22:31:52.030Z,97905.00
2018-12-09T22:34:20.599Z,97907.00
2018-12-09T22:36:49.116Z,97915.00
2018-12-09T22:39:17.771Z,97922.00
2018-12-09T22:41:46.383Z,97985.00
2018-12-09T22:44:15.145Z,97993.00
2018-12-09T22:46:44.020Z,97990.00
2018-12-09T22:49:12.505Z,97998.00
2018-12-09T22:51:41.091Z,97986.00
2018-12-09T22:54:09.565Z,97983.00
2018-12-09T22:56:38.030Z,97979.00
2018-12-09T22:59:06.533Z,97980.00
2018-12-09T23:01:35.003Z,97982.00
2018-12-09T23:04:03.545Z,97983.00
2018-12-09T23:06:32.094Z,97986.00
2018-12-09T23:09:00.579Z,97997.00
2018-12-09T23:11:29.054Z,97985.00
2018-12-09T23:13:57.535Z,97991.00
2018-12-09T23:16:25.999Z,97999.00
2018-12-09T23:18:54.447Z,97996.00
2018-12-09T23:21:22.922Z,97995.00
2018-12-09T23:23:51.464Z,98006.00
2018-12-09T23:26:20.005Z,98012.00
2018-12-09T23:28:48.484Z,98015.00
2018-12-09T23:31:17.010Z,98009.00
2018-12-09T23:33:45.501Z,98031.00
2018-12-09T23:36:13.982Z,98030.00
2018-12-09T23:38:42.534Z,98032.00
2018-12-09T23:41:11.003Z,98044.00
2018-12-09T23:43:39.570Z,98039.00
2018-12-09T23:46:08.039Z,98049.00
2018-12-09T23:48:36.587Z,98064.00
2018-12-09T23:51:05.071Z,98065.00
2018-12-09T23:53:33.684Z,98053.00
2018-12-09T23:56:02.176Z,98067.00
2018-12-09T23:58:30.725Z,98065.00
